createdAt,value
2023-04-23T00:01:17.708Z,61.64
2023-04-23T00:03:45.185Z,61.97
2023-04-23T00:06:13.052Z,62.18
2023-04-23T00:08:42.360Z,62.42
2023-04-23T00:11:10.099Z,62.46
2023-04-23T00:13:36.864Z,62.74
2023-04-23T00:16:03.658Z,62.77
2023-04-23T00:18:30.341Z,63.43
2023-04-23T00:20:57.401Z,63.37
2023-04-23T00:23:24.038Z,63.97
2023-04-23T00:25:50.615Z,64.06
2023-04-23T00:28:17.274Z,63.99
2023-04-23T00:30:44.318Z,64.04
2023-04-23T00:33:10.993Z,63.88
2023-04-23T00:35:37.538Z,64.31
2023-04-23T00:38:04.227Z,64.32
2023-04-23T00:40:30.783Z,63.51
2023-04-23T00:42:58.181Z,63.69
2023-04-23T00:45:24.742Z,62.98
2023-04-23T00:47:51.363Z,63.18
2023-04-23T00:50:18.022Z,62.69
2023-04-23T00:52:44.566Z,62.63
2023-04-23T00:55:11.276Z,62.69
2023-04-23T00:57:38.428Z,63.05
2023-04-23T01:00:06.067Z,62.98
2023-04-23T01:02:32.944Z,62.69
2023-04-23T01:05:01.761Z,62.77
2023-04-23T01:07:28.533Z,62.48
2023-04-23T01:09:55.546Z,62.91
2023-04-23T01:12:22.316Z,62.90
2023-04-23T01:14:48.973Z,62.79
2023-04-23T01:17:16.471Z,63.11
2023-04-23T01:19:43.597Z,62.79
2023-04-23T01:22:11.192Z,62.72
2023-04-23T01:24:38.297Z,62.84
2023-04-23T01:27:06.125Z,63.03
2023-04-23T01:29:33.134Z,63.27
2023-04-23T01:32:00.109Z,63.47
2023-04-23T01:34:26.632Z,63.38
2023-04-23T01:36:54.314Z,63.43
2023-04-23T01:39:20.985Z,63.03
2023-04-23T01:41:47.547Z,63.46
2023-04-23T01:44:14.220Z,63.31
2023-04-23T01:46:41.218Z,63.42
2023-04-23T01:49:08.218Z,63.82
2023-04-23T01:51:35.654Z,63.53
2023-04-23T01:54:02.205Z,63.94
2023-04-23T01:56:28.977Z,63.93
2023-04-23T01:58:55.939Z,63.35
2023-04-23T02:01:23.177Z,63.69
2023-04-23T02:03:55.516Z,63.40
2023-04-23T02:06:22.217Z,63.06
2023-04-23T02:08:49.020Z,62.87
2023-04-23T02:11:15.751Z,63.01
2023-04-23T02:13:42.378Z,63.21
2023-04-23T02:16:09.157Z,63.23
2023-04-23T02:18:35.991Z,63.39
2023-04-23T02:21:03.811Z,63.46
2023-04-23T02:23:30.624Z,63.01
2023-04-23T02:25:57.227Z,63.59
2023-04-23T02:28:24.035Z,63.37
2023-04-23T02:30:50.648Z,63.26
2023-04-23T02:33:17.216Z,63.28
2023-04-23T02:35:43.831Z,63.48
2023-04-23T02:38:10.481Z,63.45
2023-04-23T02:40:37.105Z,64.04
2023-04-23T02:43:03.819Z,63.77
2023-04-23T02:45:30.396Z,64.02
2023-04-23T02:47:57.173Z,63.98
2023-04-23T02:50:23.923Z,64.44
2023-04-23T02:52:50.644Z,64.59
2023-04-23T02:55:17.289Z,64.74
2023-04-23T02:57:44.507Z,64.99
2023-04-23T03:00:12.421Z,65.43
2023-04-23T03:02:41.817Z,65.76
2023-04-23T03:05:08.745Z,65.27
2023-04-23T03:07:35.489Z,65.64
2023-04-23T03:10:02.400Z,65.00
2023-04-23T03:12:29.240Z,64.59
2023-04-23T03:14:55.762Z,64.72
2023-04-23T03:17:25.040Z,64.35
2023-04-23T03:19:51.989Z,64.28
2023-04-23T03:22:19.011Z,63.75
2023-04-23T03:24:45.790Z,63.96
2023-04-23T03:27:12.495Z,63.75
2023-04-23T03:29:39.142Z,64.17
2023-04-23T03:32:05.705Z,64.17
2023-04-23T03:34:32.352Z,64.12
2023-04-23T03:36:58.906Z,63.50
2023-04-23T03:39:25.516Z,63.70
2023-04-23T03:41:54.381Z,63.29
2023-04-23T03:44:25.388Z,63.58
2023-04-23T03:46:52.414Z,63.44
2023-04-23T03:49:20.310Z,63.29
2023-04-23T03:51:46.825Z,63.24
2023-04-23T03:54:13.401Z,63.25
2023-04-23T03:57:03.731Z,63.43
2023-04-23T03:59:35.788Z,63.74
2023-04-23T04:02:04.434Z,63.19
2023-04-23T04:04:31.777Z,62.63
2023-04-23T04:07:00.447Z,62.61
2023-04-23T04:09:27.965Z,61.95
2023-04-23T04:11:54.557Z,60.73
2023-04-23T04:14:21.675Z,59.89
2023-04-23T04:16:48.451Z,59.15
2023-04-23T04:19:15.443Z,56.19
2023-04-23T04:21:42.030Z,54.34
2023-04-23T04:24:08.791Z,52.36
2023-04-23T04:26:35.423Z,50.46
2023-04-23T04:29:01.988Z,48.43
2023-04-23T04:31:28.915Z,46.61
2023-04-23T04:33:55.857Z,44.41
2023-04-23T04:36:25.242Z,41.27
2023-04-23T04:39:01.115Z,41.68
2023-04-23T04:41:27.832Z,40.70
2023-04-23T04:43:58.574Z,38.95
2023-04-23T04:46:29.245Z,36.94
2023-04-23T04:48:56.007Z,35.63
2023-04-23T04:51:22.948Z,35.06
2023-04-23T04:53:49.735Z,35.49
2023-04-23T04:56:17.396Z,35.62
2023-04-23T04:58:44.607Z,37.00
2023-04-23T05:01:12.656Z,38.47
2023-04-23T05:03:39.423Z,35.68
2023-04-23T05:06:06.242Z,36.17
2023-04-23T05:08:32.815Z,36.59
2023-04-23T05:11:00.825Z,36.56
2023-04-23T05:13:27.534Z,34.71
2023-04-23T05:15:54.078Z,35.45
2023-04-23T05:18:21.174Z,34.66
2023-04-23T05:20:47.896Z,33.20
2023-04-23T05:23:14.572Z,31.43
2023-04-23T05:25:41.226Z,32.30
2023-04-23T05:28:08.759Z,32.05
2023-04-23T05:30:35.976Z,32.21
2023-04-23T05:33:02.591Z,33.27
2023-04-23T05:35:29.196Z,32.90
2023-04-23T05:37:56.730Z,34.18
2023-04-23T05:40:23.272Z,32.92
2023-04-23T05:42:49.869Z,34.08
2023-04-23T05:45:16.404Z,32.68
2023-04-23T05:47:42.951Z,33.37
2023-04-23T05:50:11.672Z,33.45
2023-04-23T05:52:39.480Z,33.63
2023-04-23T05:55:06.862Z,33.05
2023-04-23T05:57:33.439Z,34.08
2023-04-23T06:00:00.238Z,34.44
2023-04-23T06:02:28.781Z,35.75
2023-04-23T06:04:56.026Z,36.04
2023-04-23T06:07:22.728Z,35.36
2023-04-23T06:09:49.307Z,34.82
2023-04-23T06:12:16.375Z,34.38
2023-04-23T06:14:43.208Z,35.54
2023-04-23T06:17:10.731Z,34.72
2023-04-23T06:19:37.260Z,35.19
2023-04-23T06:22:03.834Z,34.90
2023-04-23T06:24:30.481Z,34.27
2023-04-23T06:26:57.874Z,33.82
2023-04-23T06:29:25.797Z,34.88
2023-04-23T06:32:12.652Z,35.33
2023-04-23T06:34:46.642Z,33.46
2023-04-23T06:37:20.320Z,34.36
2023-04-23T06:39:47.103Z,34.66
2023-04-23T06:42:13.776Z,34.27
2023-04-23T06:45:09.947Z,33.95
2023-04-23T06:47:36.669Z,34.24
2023-04-23T06:50:03.418Z,34.53
2023-04-23T06:52:30.243Z,36.20
2023-04-23T06:54:56.771Z,34.37
2023-04-23T06:57:23.311Z,35.07
2023-04-23T06:59:49.886Z,37.49
2023-04-23T07:02:17.800Z,34.12
2023-04-23T07:04:44.923Z,33.66
2023-04-23T07:07:12.413Z,34.13
2023-04-23T07:09:39.410Z,34.37
2023-04-23T07:12:06.070Z,35.48
2023-04-23T07:14:32.671Z,35.95
2023-04-23T07:16:59.422Z,36.28
2023-04-23T07:19:27.403Z,34.54
2023-04-23T07:21:54.030Z,36.15
2023-04-23T07:24:20.763Z,35.84
2023-04-23T07:26:47.401Z,36.98
2023-04-23T07:29:14.582Z,36.23
2023-04-23T07:31:44.427Z,38.52
2023-04-23T07:34:11.064Z,39.39
2023-04-23T07:36:37.693Z,38.21
2023-04-23T07:39:05.422Z,38.39
2023-04-23T07:41:32.563Z,37.57
2023-04-23T07:43:59.191Z,39.23
2023-04-23T07:46:25.814Z,40.55
2023-04-23T07:48:53.132Z,39.92
2023-04-23T07:51:19.716Z,38.76
2023-04-23T07:53:47.101Z,38.56
2023-04-23T07:56:14.527Z,39.36
2023-04-23T07:58:41.051Z,37.62
2023-04-23T08:01:10.374Z,38.84
2023-04-23T08:03:37.332Z,38.19
2023-04-23T08:06:04.864Z,39.04
2023-04-23T08:08:31.501Z,38.47
2023-04-23T08:10:58.370Z,39.26
2023-04-23T08:13:24.979Z,39.20
2023-04-23T08:15:52.292Z,39.95
2023-04-23T08:18:18.956Z,40.76
2023-04-23T08:20:45.566Z,38.96
2023-04-23T08:23:12.185Z,41.33
2023-04-23T08:25:39.318Z,41.47
2023-04-23T08:28:06.138Z,39.82
2023-04-23T08:30:32.720Z,40.01
2023-04-23T08:32:59.360Z,39.56
2023-04-23T08:35:26.049Z,38.73
2023-04-23T08:37:52.635Z,40.52
2023-04-23T08:40:19.303Z,39.31
2023-04-23T08:42:57.788Z,39.79
2023-04-23T08:45:24.808Z,39.02
2023-04-23T08:47:51.556Z,39.70
2023-04-23T08:50:18.775Z,39.16
2023-04-23T08:52:47.939Z,41.90
2023-04-23T08:55:15.990Z,39.44
2023-04-23T08:57:42.719Z,39.37
2023-04-23T09:00:11.021Z,39.87
2023-04-23T09:02:40.107Z,40.86
2023-04-23T09:05:07.069Z,39.46
2023-04-23T09:07:34.701Z,39.66
2023-04-23T09:10:02.240Z,41.18
2023-04-23T09:12:28.991Z,39.99
2023-04-23T09:14:55.883Z,39.97
2023-04-23T09:17:23.354Z,40.99
2023-04-23T09:19:54.051Z,40.10
2023-04-23T09:22:39.059Z,39.08
2023-04-23T09:25:06.192Z,42.40
2023-04-23T09:27:32.813Z,40.37
2023-04-23T09:30:03.401Z,39.31
2023-04-23T09:32:33.666Z,40.32
2023-04-23T09:35:02.536Z,40.98
2023-04-23T09:37:29.176Z,39.13
2023-04-23T09:39:58.680Z,39.01
2023-04-23T09:42:27.041Z,37.60
2023-04-23T09:45:06.385Z,39.15
2023-04-23T09:47:34.681Z,38.06
2023-04-23T09:50:01.441Z,39.81
2023-04-23T09:52:29.261Z,38.61
2023-04-23T09:55:01.400Z,40.85
2023-04-23T09:57:28.262Z,37.15
2023-04-23T10:00:07.342Z,37.72
2023-04-23T10:02:41.106Z,39.94
2023-04-23T10:07:51.147Z,40.68
2023-04-23T10:10:18.757Z,39.34
2023-04-23T10:12:54.432Z,39.10
2023-04-23T10:15:23.184Z,38.22
2023-04-23T10:17:51.200Z,40.18
2023-04-23T10:20:21.051Z,38.17
2023-04-23T10:22:47.797Z,37.94
2023-04-23T10:25:14.541Z,37.54
2023-04-23T10:27:53.966Z,36.28
2023-04-23T10:30:22.018Z,36.59
2023-04-23T10:32:49.270Z,38.83
2023-04-23T10:35:16.069Z,38.77
2023-04-23T10:37:44.850Z,36.71
2023-04-23T10:40:16.415Z,38.10
2023-04-23T10:42:43.558Z,36.61
2023-04-23T10:47:46.464Z,37.22
2023-04-23T10:50:20.856Z,40.08
2023-04-23T10:52:51.472Z,37.66
2023-04-23T10:55:19.443Z,38.33
2023-04-23T10:58:15.900Z,39.37
2023-04-23T11:00:46.231Z,37.32
2023-04-23T11:03:32.122Z,38.69
2023-04-23T11:06:03.240Z,38.41
2023-04-23T11:08:32.446Z,38.52
2023-04-23T11:10:59.948Z,37.49
2023-04-23T11:13:27.242Z,36.45
2023-04-23T11:16:12.307Z,36.94
2023-04-23T11:18:57.539Z,36.95
2023-04-23T11:21:44.046Z,37.73
2023-04-23T11:24:10.618Z,37.46
2023-04-23T11:26:38.005Z,38.49
2023-04-23T11:29:05.848Z,35.04
2023-04-23T11:31:32.935Z,36.25
2023-04-23T11:34:00.099Z,35.98
2023-04-23T11:36:27.645Z,36.82
2023-04-23T11:38:56.349Z,37.51
2023-04-23T11:41:23.373Z,34.67
2023-04-23T11:43:49.946Z,35.44
2023-04-23T11:46:16.495Z,35.64
2023-04-23T11:48:43.085Z,34.59
2023-04-23T11:51:09.629Z,35.55
2023-04-23T11:53:36.464Z,34.41
2023-04-23T11:56:04.233Z,35.88
2023-04-23T11:58:31.097Z,35.56
2023-04-23T12:00:59.358Z,36.92
2023-04-23T12:03:27.465Z,35.40
2023-04-23T12:05:55.977Z,34.89
2023-04-23T12:08:22.753Z,36.59
2023-04-23T12:10:49.405Z,35.49
2023-04-23T12:13:23.560Z,36.38
2023-04-23T12:15:57.090Z,36.76
2023-04-23T12:18:31.275Z,35.14
2023-04-23T12:21:07.654Z,36.35
2023-04-23T12:23:36.183Z,35.27
2023-04-23T12:26:06.819Z,36.04
2023-04-23T12:28:33.356Z,36.57
2023-04-23T12:31:01.478Z,35.35
2023-04-23T12:33:31.144Z,35.72
2023-04-23T12:35:57.756Z,34.29
2023-04-23T12:38:29.036Z,36.93
2023-04-23T12:40:56.718Z,36.59
2023-04-23T12:43:23.796Z,35.49
2023-04-23T12:45:51.203Z,35.49
2023-04-23T12:48:18.427Z,36.22
2023-04-23T12:50:46.181Z,35.03
2023-04-23T12:53:13.152Z,33.98
2023-04-23T12:55:39.774Z,35.81
2023-04-23T12:58:07.049Z,36.04
2023-04-23T13:00:33.645Z,35.48
2023-04-23T13:03:00.384Z,33.92
2023-04-23T13:05:26.957Z,34.65
2023-04-23T13:07:56.284Z,34.82
2023-04-23T13:10:22.994Z,34.82
2023-04-23T13:12:49.572Z,33.55
2023-04-23T13:15:16.125Z,33.85
2023-04-23T13:17:42.774Z,35.04
2023-04-23T13:20:09.577Z,34.44
2023-04-23T13:22:36.137Z,36.69
2023-04-23T13:25:05.585Z,35.83
2023-04-23T13:27:32.209Z,35.60
2023-04-23T13:30:01.906Z,37.99
2023-04-23T13:32:32.320Z,37.04
2023-04-23T13:35:04.053Z,36.58
2023-04-23T13:37:31.554Z,35.73
2023-04-23T13:39:58.196Z,37.99
2023-04-23T13:42:26.484Z,36.80
2023-04-23T13:44:53.116Z,35.43
2023-04-23T13:47:19.752Z,35.69
2023-04-23T13:49:46.315Z,35.73
2023-04-23T13:52:12.875Z,36.83
2023-04-23T13:54:39.959Z,36.44
2023-04-23T13:57:06.745Z,37.38
2023-04-23T13:59:33.368Z,36.22
2023-04-23T14:02:00.069Z,37.31
2023-04-23T14:04:27.062Z,37.74
2023-04-23T14:06:53.846Z,36.22
2023-04-23T14:09:22.260Z,37.19
2023-04-23T14:11:49.022Z,36.62
2023-04-23T14:14:16.600Z,37.69
2023-04-23T14:16:43.244Z,36.42
2023-04-23T14:19:10.223Z,37.24
2023-04-23T14:21:37.483Z,36.72
2023-04-23T14:24:17.312Z,37.13
2023-04-23T14:26:49.144Z,38.26
2023-04-23T14:29:36.370Z,38.80
2023-04-23T14:32:02.942Z,36.68
2023-04-23T14:34:29.870Z,38.03
2023-04-23T14:36:56.410Z,37.76
2023-04-23T14:39:23.470Z,38.28
2023-04-23T14:41:50.059Z,38.34
2023-04-23T14:44:16.593Z,37.54
2023-04-23T14:46:43.159Z,37.55
2023-04-23T14:49:14.986Z,38.89
2023-04-23T14:51:42.183Z,38.36
2023-04-23T14:54:08.851Z,38.89
2023-04-23T14:56:35.427Z,38.70
2023-04-23T14:59:02.108Z,37.99
2023-04-23T15:01:29.257Z,38.18
2023-04-23T15:03:56.408Z,39.01
2023-04-23T15:06:23.164Z,40.47
2023-04-23T15:08:50.027Z,38.93
2023-04-23T15:11:16.572Z,39.77
2023-04-23T15:13:56.523Z,38.52
2023-04-23T15:16:40.413Z,39.81
2023-04-23T15:19:13.551Z,40.59
2023-04-23T15:21:42.688Z,41.25
2023-04-23T15:24:09.575Z,39.71
2023-04-23T15:26:36.496Z,39.66
2023-04-23T15:29:04.053Z,40.00
2023-04-23T15:31:30.940Z,39.57
2023-04-23T15:33:57.612Z,40.15
2023-04-23T15:36:24.159Z,40.03
2023-04-23T15:38:53.870Z,41.35
2023-04-23T15:41:20.675Z,40.38
2023-04-23T15:43:48.867Z,39.73
2023-04-23T15:46:15.557Z,40.13
2023-04-23T15:48:42.204Z,41.54
2023-04-23T15:51:09.740Z,41.98
2023-04-23T15:53:36.401Z,41.14
2023-04-23T15:56:03.065Z,40.76
2023-04-23T15:58:29.860Z,40.60
2023-04-23T16:00:56.659Z,40.35
2023-04-23T16:03:23.511Z,39.97
2023-04-23T16:05:51.074Z,40.45
2023-04-23T16:08:17.603Z,40.64
2023-04-23T16:10:44.250Z,41.09
2023-04-23T16:13:11.004Z,40.41
2023-04-23T16:15:37.676Z,40.72
2023-04-23T16:18:06.129Z,40.65
2023-04-23T16:20:33.346Z,40.68
2023-04-23T16:22:59.987Z,41.04
2023-04-23T16:25:26.599Z,40.61
2023-04-23T16:27:53.564Z,40.92
2023-04-23T16:30:20.221Z,41.50
2023-04-23T16:32:46.765Z,41.00
2023-04-23T16:35:13.459Z,41.54
2023-04-23T16:37:40.002Z,41.15
2023-04-23T16:40:07.085Z,42.01
2023-04-23T16:42:33.554Z,40.74
2023-04-23T16:45:00.156Z,41.04
2023-04-23T16:47:26.732Z,41.58
2023-04-23T16:49:53.564Z,40.91
2023-04-23T16:52:20.223Z,41.58
2023-04-23T16:54:49.336Z,41.77
2023-04-23T16:57:16.457Z,42.25
2023-04-23T16:59:43.087Z,41.44
2023-04-23T17:02:09.681Z,42.35
2023-04-23T17:04:36.690Z,41.24
2023-04-23T17:07:03.421Z,41.51
2023-04-23T17:09:29.979Z,41.58
2023-04-23T17:11:57.890Z,41.98
2023-04-23T17:14:24.360Z,42.13
2023-04-23T17:16:50.972Z,41.82
2023-04-23T17:19:18.422Z,43.02
2023-04-23T17:21:44.914Z,42.66
2023-04-23T17:24:11.443Z,42.95
2023-04-23T17:26:39.724Z,43.20
2023-04-23T17:29:06.571Z,43.48
2023-04-23T17:31:33.366Z,44.04
2023-04-23T17:34:00.844Z,43.96
2023-04-23T17:36:27.452Z,43.78
2023-04-23T17:38:54.136Z,43.97
2023-04-23T17:41:22.721Z,44.12
2023-04-23T17:43:49.475Z,44.43
2023-04-23T17:46:16.388Z,44.46
2023-04-23T17:48:42.990Z,45.10
2023-04-23T17:51:09.568Z,44.88
2023-04-23T17:53:36.424Z,45.34
2023-04-23T17:56:03.382Z,45.81
2023-04-23T17:58:30.770Z,45.97
2023-04-23T18:00:57.547Z,46.15
2023-04-23T18:03:24.471Z,46.05
2023-04-23T18:05:51.188Z,46.34
2023-04-23T18:08:19.507Z,46.19
2023-04-23T18:10:46.270Z,45.82
2023-04-23T18:13:13.486Z,46.23
2023-04-23T18:15:41.634Z,46.03
2023-04-23T18:18:08.411Z,46.51
2023-04-23T18:20:38.238Z,46.10
2023-04-23T18:23:05.485Z,46.35
2023-04-23T18:25:32.448Z,46.39
2023-04-23T18:27:59.009Z,46.34
2023-04-23T18:30:26.040Z,46.71
2023-04-23T18:33:00.843Z,47.37
2023-04-23T18:35:27.440Z,48.01
2023-04-23T18:37:54.800Z,48.17
2023-04-23T18:40:21.302Z,48.73
2023-04-23T18:42:47.820Z,48.66
2023-04-23T18:45:14.841Z,48.87
2023-04-23T18:47:50.132Z,49.11
2023-04-23T18:50:30.700Z,49.34
2023-04-23T18:52:57.210Z,49.43
2023-04-23T18:55:23.872Z,49.54
2023-04-23T18:57:50.440Z,49.56
2023-04-23T19:00:17.059Z,49.74
2023-04-23T19:02:43.662Z,50.04
2023-04-23T19:05:11.307Z,49.93
2023-04-23T19:07:40.424Z,50.10
2023-04-23T19:10:07.307Z,49.72
2023-04-23T19:12:33.826Z,49.90
2023-04-23T19:15:00.421Z,49.95
2023-04-23T19:17:27.139Z,49.81
2023-04-23T19:19:53.656Z,50.08
2023-04-23T19:22:22.128Z,50.24
2023-04-23T19:24:48.603Z,49.77
2023-04-23T19:27:15.182Z,49.89
2023-04-23T19:29:41.896Z,50.21
2023-04-23T19:32:08.549Z,49.47
2023-04-23T19:34:35.403Z,49.98
2023-04-23T19:37:01.948Z,49.88
2023-04-23T19:39:28.624Z,50.00
2023-04-23T19:41:55.445Z,49.69
2023-04-23T19:44:21.931Z,49.19
2023-04-23T19:46:48.530Z,49.20
2023-04-23T19:49:15.250Z,48.77
2023-04-23T19:51:42.468Z,48.89
2023-04-23T19:54:09.144Z,49.22
2023-04-23T19:56:35.886Z,48.78
2023-04-23T19:59:02.451Z,49.00
2023-04-23T20:01:29.996Z,48.85
2023-04-23T20:03:57.045Z,48.71
2023-04-23T20:06:23.842Z,48.65
2023-04-23T20:09:15.383Z,48.41
2023-04-23T20:11:42.055Z,49.05
2023-04-23T20:14:08.629Z,49.08
2023-04-23T20:16:35.628Z,49.17
2023-04-23T20:19:04.863Z,48.37
2023-04-23T20:21:31.790Z,47.74
2023-04-23T20:23:58.313Z,47.64
2023-04-23T20:26:24.778Z,47.02
2023-04-23T20:28:51.421Z,47.58
2023-04-23T20:31:20.050Z,46.99
2023-04-23T20:33:47.645Z,46.70
2023-04-23T20:36:15.922Z,46.02
2023-04-23T20:38:42.421Z,45.31
2023-04-23T20:41:10.984Z,45.76
2023-04-23T20:43:40.864Z,45.71
2023-04-23T20:46:09.460Z,45.63
2023-04-23T20:48:36.924Z,46.43
2023-04-23T20:51:03.563Z,46.34
2023-04-23T20:53:30.144Z,46.75
2023-04-23T20:55:57.137Z,47.41
2023-04-23T20:58:24.268Z,47.39
2023-04-23T21:00:51.512Z,47.70
2023-04-23T21:03:18.777Z,47.97
2023-04-23T21:05:45.600Z,48.51
2023-04-23T21:08:13.901Z,49.29
2023-04-23T21:10:41.233Z,49.57
2023-04-23T21:13:09.811Z,50.22
2023-04-23T21:15:37.132Z,50.78
2023-04-23T21:18:04.146Z,52.52
2023-04-23T21:20:31.204Z,54.05
2023-04-23T21:22:57.751Z,56.13
2023-04-23T21:25:24.558Z,57.59
2023-04-23T21:27:51.146Z,58.36
2023-04-23T21:30:23.633Z,59.95
2023-04-23T21:32:52.169Z,60.53
2023-04-23T21:35:18.886Z,61.26
2023-04-23T21:37:45.386Z,61.89
2023-04-23T21:40:12.039Z,62.02
2023-04-23T21:42:38.822Z,65.15
2023-04-23T21:45:05.676Z,66.38
2023-04-23T21:47:32.303Z,68.21
2023-04-23T21:50:00.253Z,66.75
2023-04-23T21:52:26.853Z,67.70
2023-04-23T21:54:53.497Z,68.95
2023-04-23T21:57:20.369Z,70.30
2023-04-23T21:59:46.848Z,70.81
2023-04-23T22:02:13.446Z,70.80
2023-04-23T22:04:40.346Z,68.89
2023-04-23T22:07:12.396Z,68.45
2023-04-23T22:09:39.221Z,67.94
2023-04-23T22:12:06.215Z,67.85
2023-04-23T22:14:32.834Z,68.24
2023-04-23T22:16:59.578Z,68.47
2023-04-23T22:19:26.242Z,68.92
2023-04-23T22:21:52.815Z,68.89
2023-04-23T22:24:19.346Z,68.83
2023-04-23T22:26:46.388Z,69.46
2023-04-23T22:29:13.380Z,69.71
2023-04-23T22:31:39.859Z,70.02
2023-04-23T22:34:06.722Z,69.97
2023-04-23T22:36:34.486Z,69.95
2023-04-23T22:39:01.892Z,70.15
2023-04-23T22:41:28.546Z,70.47
2023-04-23T22:43:55.131Z,71.59
2023-04-23T22:46:21.797Z,71.28
2023-04-23T22:48:48.840Z,72.33
2023-04-23T22:51:15.413Z,72.34
2023-04-23T22:53:42.036Z,72.95
2023-04-23T22:56:08.999Z,73.26
2023-04-23T22:58:37.126Z,73.17
2023-04-23T23:01:03.710Z,73.09
2023-04-23T23:03:30.465Z,73.62
2023-04-23T23:05:57.076Z,74.49
2023-04-23T23:08:23.699Z,74.72
2023-04-23T23:10:50.329Z,74.71
2023-04-23T23:13:16.872Z,74.44
2023-04-23T23:15:43.490Z,74.05
2023-04-23T23:18:10.107Z,73.33
2023-04-23T23:20:36.889Z,72.22
2023-04-23T23:23:03.753Z,72.01
2023-04-23T23:25:30.228Z,71.91
2023-04-23T23:27:57.078Z,71.72
2023-04-23T23:30:23.719Z,71.91
2023-04-23T23:32:50.258Z,71.48
2023-04-23T23:35:17.155Z,71.19
2023-04-23T23:37:43.744Z,71.46
2023-04-23T23:40:10.699Z,71.92
2023-04-23T23:42:37.278Z,71.80
2023-04-23T23:45:04.262Z,71.83
2023-04-23T23:47:31.003Z,70.56
2023-04-23T23:49:57.632Z,71.61
2023-04-23T23:52:24.220Z,70.14
2023-04-23T23:54:51.268Z,69.16
2023-04-23T23:57:17.735Z,68.08
2023-04-23T23:59:44.507Z,67.94
